createdAt,value
2017-06-09T00:00:09.954Z,23.49
2017-06-09T00:00:29.331Z,23.49
2017-06-09T00:00:47.689Z,23.52
2017-06-09T00:01:07.085Z,23.56
2017-06-09T00:01:25.910Z,23.55
2017-06-09T00:01:45.345Z,23.63
2017-06-09T00:02:04.194Z,23.64
2017-06-09T00:02:23.551Z,23.63
2017-06-09T00:02:42.914Z,23.55
2017-06-09T00:03:01.786Z,23.61
2017-06-09T00:03:21.144Z,23.58
2017-06-09T00:03:40.484Z,23.6
2017-06-09T00:03:59.830Z,23.67
2017-06-09T00:04:19.170Z,23.79
2017-06-09T00:04:37.487Z,23.68
2017-06-09T00:04:56.829Z,23.74
2017-06-09T00:05:16.176Z,23.74
2017-06-09T00:05:35.555Z,23.68
2017-06-09T00:05:54.941Z,23.67
2017-06-09T00:06:14.351Z,23.78
2017-06-09T00:06:33.182Z,23.78
2017-06-09T00:06:51.483Z,23.82
2017-06-09T00:07:10.353Z,23.85
2017-06-09T00:07:29.706Z,23.85
2017-06-09T00:07:48.533Z,23.8
2017-06-09T00:08:07.378Z,23.87
2017-06-09T00:08:26.751Z,23.89
2017-06-09T00:08:46.110Z,23.97
2017-06-09T00:09:05.461Z,23.92
2017-06-09T00:09:24.812Z,23.87
2017-06-09T00:09:43.649Z,23.89
2017-06-09T00:10:02.477Z,23.86
2017-06-09T00:10:21.336Z,23.92
2017-06-09T00:10:40.183Z,23.8
2017-06-09T00:10:59.535Z,23.9
2017-06-09T00:11:18.915Z,23.79
2017-06-09T00:11:38.290Z,23.78
2017-06-09T00:11:57.214Z,23.8
2017-06-09T00:12:16.776Z,23.9
2017-06-09T00:12:35.607Z,23.82
2017-06-09T00:12:54.963Z,23.86
2017-06-09T00:13:13.829Z,23.78
2017-06-09T00:13:33.179Z,23.87
2017-06-09T00:13:51.994Z,23.83
2017-06-09T00:14:10.295Z,23.85
2017-06-09T00:14:29.642Z,23.86
2017-06-09T00:14:48.988Z,23.92
2017-06-09T00:15:07.838Z,23.86
2017-06-09T00:15:27.194Z,23.87
2017-06-09T00:15:46.549Z,23.89
2017-06-09T00:16:05.413Z,23.82
2017-06-09T00:16:23.213Z,23.82
2017-06-09T00:16:42.550Z,23.75
2017-06-09T00:17:01.368Z,23.83
2017-06-09T00:17:20.183Z,23.83
2017-06-09T00:17:39.544Z,23.83
2017-06-09T00:17:58.902Z,23.86
2017-06-09T00:18:18.274Z,23.86
2017-06-09T00:18:37.125Z,23.8
2017-06-09T00:18:55.971Z,23.78
2017-06-09T00:19:15.330Z,23.89
2017-06-09T00:19:34.173Z,23.89
2017-06-09T00:19:53.641Z,23.83
2017-06-09T00:20:13.050Z,23.82
2017-06-09T00:20:32.429Z,23.82
2017-06-09T00:20:51.827Z,23.78
2017-06-09T00:21:11.206Z,23.79
2017-06-09T00:21:29.552Z,23.83
2017-06-09T00:21:48.954Z,23.75
2017-06-09T00:22:07.294Z,23.8
2017-06-09T00:22:26.665Z,23.83
2017-06-09T00:22:45.599Z,23.75
2017-06-09T00:23:04.526Z,23.9
2017-06-09T00:23:23.888Z,23.9
2017-06-09T00:23:43.248Z,23.82
2017-06-09T00:24:02.582Z,23.78
2017-06-09T00:24:21.430Z,23.83
2017-06-09T00:24:40.766Z,23.79
2017-06-09T00:24:59.635Z,23.8
2017-06-09T00:25:18.458Z,23.72
2017-06-09T00:25:37.823Z,23.74
2017-06-09T00:25:57.213Z,23.72
2017-06-09T00:26:16.641Z,23.63
2017-06-09T00:26:35.504Z,23.65
2017-06-09T00:26:54.862Z,23.5
2017-06-09T00:27:14.267Z,23.55
2017-06-09T00:27:33.106Z,23.46
2017-06-09T00:27:52.461Z,23.48
2017-06-09T00:28:11.299Z,23.6
2017-06-09T00:28:30.131Z,23.46
2017-06-09T00:28:48.966Z,23.45
2017-06-09T00:29:08.309Z,23.58
2017-06-09T00:29:26.656Z,23.63
2017-06-09T00:29:46.058Z,23.61
2017-06-09T00:30:05.439Z,23.64
2017-06-09T00:30:24.799Z,23.64
2017-06-09T00:30:43.679Z,23.65
2017-06-09T00:31:02.562Z,23.6
2017-06-09T00:31:21.414Z,23.68
2017-06-09T00:31:40.764Z,23.65
2017-06-09T00:32:00.130Z,23.6
2017-06-09T00:32:19.480Z,23.67
2017-06-09T00:32:38.845Z,23.65
2017-06-09T00:32:57.173Z,23.68
2017-06-09T00:33:16.514Z,23.7
2017-06-09T00:33:35.397Z,23.72
2017-06-09T00:33:54.764Z,23.75
2017-06-09T00:34:13.671Z,23.7
2017-06-09T00:34:33.031Z,23.61
2017-06-09T00:34:53.565Z,23.63
2017-06-09T00:35:12.443Z,23.61
2017-06-09T00:35:31.811Z,23.6
2017-06-09T00:35:51.302Z,23.64
2017-06-09T00:36:24.642Z,23.55
2017-06-09T00:36:43.543Z,23.68
2017-06-09T00:37:02.954Z,23.63
2017-06-09T00:37:22.349Z,23.65
2017-06-09T00:37:41.168Z,23.64
2017-06-09T00:37:59.995Z,23.65
2017-06-09T00:38:19.345Z,23.6
2017-06-09T00:38:38.728Z,23.61
2017-06-09T00:38:57.604Z,23.65
2017-06-09T00:39:16.499Z,23.75
2017-06-09T00:39:35.881Z,23.68
2017-06-09T00:39:55.357Z,23.61
2017-06-09T00:40:14.813Z,23.72
2017-06-09T00:40:34.184Z,23.65
2017-06-09T00:40:53.554Z,23.63
2017-06-09T00:41:12.415Z,23.68
2017-06-09T00:41:31.610Z,23.68
2017-06-09T00:41:51.057Z,23.6
2017-06-09T00:42:10.016Z,23.65
2017-06-09T00:42:29.478Z,23.63
2017-06-09T00:42:48.866Z,23.74
2017-06-09T00:43:08.262Z,23.67
2017-06-09T00:43:27.101Z,23.61
2017-06-09T00:43:45.984Z,23.75
2017-06-09T00:44:04.907Z,23.67
2017-06-09T00:44:24.514Z,23.71
2017-06-09T00:44:43.916Z,23.75
2017-06-09T00:45:02.784Z,23.63
2017-06-09T00:45:21.639Z,23.64
2017-06-09T00:45:41.024Z,23.61
2017-06-09T00:46:00.375Z,23.71
2017-06-09T00:46:19.716Z,23.75
2017-06-09T00:46:38.553Z,23.83
2017-06-09T00:46:57.983Z,23.79
2017-06-09T00:47:17.342Z,23.75
2017-06-09T00:47:36.709Z,23.7
2017-06-09T00:47:56.102Z,23.71
2017-06-09T00:48:15.458Z,23.7
2017-06-09T00:48:34.841Z,23.75
2017-06-09T00:48:54.241Z,23.78
2017-06-09T00:49:13.106Z,23.83
2017-06-09T00:49:32.542Z,23.8
2017-06-09T00:49:51.946Z,23.78
2017-06-09T00:50:10.859Z,23.72
2017-06-09T00:50:30.208Z,23.67
2017-06-09T00:50:49.172Z,23.71
2017-06-09T00:51:08.515Z,23.74
2017-06-09T00:51:27.898Z,23.72
2017-06-09T00:51:47.320Z,23.75
2017-06-09T00:52:06.195Z,23.74
2017-06-09T00:52:25.566Z,23.67
2017-06-09T00:52:44.947Z,23.6
2017-06-09T00:53:04.355Z,23.61
2017-06-09T00:53:23.185Z,23.6
2017-06-09T00:53:42.553Z,23.53
2017-06-09T00:54:01.379Z,23.52
2017-06-09T00:54:20.233Z,23.58
2017-06-09T00:54:39.627Z,23.53
2017-06-09T00:54:58.979Z,23.55
2017-06-09T00:55:18.340Z,23.58
2017-06-09T00:55:37.178Z,23.56
2017-06-09T00:55:55.992Z,23.52
2017-06-09T00:56:14.859Z,23.58
2017-06-09T00:56:33.709Z,23.63
2017-06-09T00:56:53.131Z,23.46
2017-06-09T00:57:12.572Z,23.46
2017-06-09T00:57:30.886Z,23.49
2017-06-09T00:57:50.207Z,23.6
2017-06-09T00:58:09.565Z,23.61
2017-06-09T00:58:28.460Z,23.63
2017-06-09T00:58:47.890Z,23.55
2017-06-09T00:59:07.286Z,23.48
2017-06-09T00:59:26.647Z,23.55
2017-06-09T00:59:45.477Z,23.58
2017-06-09T01:00:05.329Z,23.55
2017-06-09T01:00:24.188Z,23.58
2017-06-09T01:00:43.543Z,23.56
2017-06-09T01:01:02.872Z,23.45
2017-06-09T01:01:21.187Z,23.43
2017-06-09T01:01:40.528Z,23.58
2017-06-09T01:01:59.867Z,23.56
2017-06-09T01:02:18.177Z,23.63
2017-06-09T01:02:37.553Z,23.52
2017-06-09T01:02:56.378Z,23.53
2017-06-09T01:03:15.255Z,23.55
2017-06-09T01:03:34.603Z,23.43
2017-06-09T01:03:54.015Z,23.5
2017-06-09T01:04:12.330Z,23.49
2017-06-09T01:04:31.681Z,23.49
2017-06-09T01:04:51.080Z,23.58
2017-06-09T01:05:09.423Z,23.55
2017-06-09T01:05:28.815Z,23.55
2017-06-09T01:05:47.639Z,23.5
2017-06-09T01:06:07.037Z,23.64
2017-06-09T01:06:25.334Z,23.61
2017-06-09T01:06:44.182Z,23.68
2017-06-09T01:07:03.544Z,23.68
2017-06-09T01:07:22.390Z,23.67
2017-06-09T01:07:41.763Z,23.64
2017-06-09T01:08:00.587Z,23.6
2017-06-09T01:08:19.416Z,23.68
2017-06-09T01:08:38.256Z,23.58
2017-06-09T01:08:57.087Z,23.61
2017-06-09T01:09:16.429Z,23.68
2017-06-09T01:09:35.814Z,23.68
2017-06-09T01:09:55.154Z,23.6
2017-06-09T01:10:14.002Z,23.61
2017-06-09T01:10:33.344Z,23.6
2017-06-09T01:10:52.711Z,23.61
2017-06-09T01:11:12.093Z,23.61
2017-06-09T01:11:31.435Z,23.64
2017-06-09T01:11:50.805Z,23.67
2017-06-09T01:12:10.172Z,23.75
2017-06-09T01:12:29.526Z,23.74
2017-06-09T01:12:48.885Z,23.71
2017-06-09T01:13:07.733Z,23.74
2017-06-09T01:13:27.071Z,23.65
2017-06-09T01:13:46.459Z,23.72
2017-06-09T01:14:05.792Z,23.75
2017-06-09T01:14:24.609Z,23.68
2017-06-09T01:14:43.446Z,23.7
2017-06-09T01:15:02.802Z,23.7
2017-06-09T01:15:21.665Z,23.79
2017-06-09T01:15:39.992Z,23.79
2017-06-09T01:15:59.338Z,23.75
2017-06-09T01:16:18.678Z,23.78
2017-06-09T01:16:36.993Z,23.79
2017-06-09T01:16:56.357Z,23.82
2017-06-09T01:17:15.178Z,23.8
2017-06-09T01:17:34.545Z,23.78
2017-06-09T01:17:53.910Z,23.79
2017-06-09T01:18:13.258Z,23.78
2017-06-09T01:18:32.591Z,23.79
2017-06-09T01:18:50.911Z,23.86
2017-06-09T01:19:10.258Z,23.87
2017-06-09T01:19:28.589Z,23.85
2017-06-09T01:19:47.472Z,23.85
2017-06-09T01:20:06.843Z,23.95
2017-06-09T01:20:25.694Z,23.92
2017-06-09T01:20:44.072Z,23.95
2017-06-09T01:21:03.415Z,23.95
2017-06-09T01:21:22.837Z,23.95
2017-06-09T01:21:42.262Z,23.95
2017-06-09T01:22:01.672Z,23.98
2017-06-09T01:22:20.538Z,23.93
2017-06-09T01:22:39.928Z,24.01
2017-06-09T01:22:59.330Z,23.98
2017-06-09T01:23:18.682Z,23.95
2017-06-09T01:23:38.077Z,23.98
2017-06-09T01:23:56.957Z,24.02
2017-06-09T01:24:16.310Z,24.04
2017-06-09T01:24:35.146Z,24.04
2017-06-09T01:24:53.978Z,24.05
2017-06-09T01:25:12.815Z,24.08
2017-06-09T01:25:31.950Z,24.04
2017-06-09T01:25:51.350Z,24.1
2017-06-09T01:26:10.700Z,24.08
2017-06-09T01:26:29.000Z,24.1
2017-06-09T01:26:48.413Z,24.1
2017-06-09T01:27:08.254Z,24.12
2017-06-09T01:27:27.124Z,24.16
2017-06-09T01:27:46.682Z,24.1
2017-06-09T01:28:06.019Z,24.19
2017-06-09T01:28:24.913Z,24.17
2017-06-09T01:28:43.831Z,24.23
2017-06-09T01:29:03.336Z,24.17
2017-06-09T01:29:22.245Z,24.16
2017-06-09T01:29:41.096Z,24.11
2017-06-09T01:30:00.509Z,24.15
2017-06-09T01:30:52.740Z,24.15
2017-06-09T01:31:12.145Z,24.1
2017-06-09T01:31:31.544Z,24
2017-06-09T01:31:50.370Z,24.01
2017-06-09T01:32:09.266Z,24.05
2017-06-09T01:32:28.626Z,23.97
2017-06-09T01:32:47.977Z,24.02
2017-06-09T01:33:07.303Z,24.04
2017-06-09T01:33:26.662Z,24.02
2017-06-09T01:33:45.998Z,24.05
2017-06-09T01:34:05.353Z,24.05
2017-06-09T01:34:24.707Z,24.01
2017-06-09T01:34:44.068Z,23.98
2017-06-09T01:35:03.428Z,24.01
2017-06-09T01:35:22.770Z,24
2017-06-09T01:35:41.690Z,24.02
2017-06-09T01:36:00.555Z,23.98
2017-06-09T01:36:19.942Z,23.97
2017-06-09T01:36:38.788Z,23.92
2017-06-09T01:36:58.175Z,23.85
2017-06-09T01:37:17.527Z,23.87
2017-06-09T01:37:36.357Z,23.87
2017-06-09T01:37:55.698Z,23.87
2017-06-09T01:38:15.038Z,23.92
2017-06-09T01:38:33.885Z,23.9
2017-06-09T01:38:53.258Z,23.83
2017-06-09T01:39:12.623Z,23.85
2017-06-09T01:39:31.976Z,23.78
2017-06-09T01:39:51.368Z,23.78
2017-06-09T01:40:10.222Z,23.8
2017-06-09T01:40:29.064Z,23.78
2017-06-09T01:40:48.419Z,23.7
2017-06-09T01:41:07.763Z,23.7
2017-06-09T01:41:26.607Z,23.65
2017-06-09T01:41:45.961Z,23.64
2017-06-09T01:42:05.305Z,23.55
2017-06-09T01:42:24.651Z,23.61
2017-06-09T01:42:43.486Z,23.55
2017-06-09T01:43:02.856Z,23.45
2017-06-09T01:43:22.210Z,23.43
2017-06-09T01:43:41.549Z,23.43
2017-06-09T01:44:00.919Z,23.48
2017-06-09T01:44:20.287Z,23.48
2017-06-09T01:44:39.155Z,23.49
2017-06-09T01:44:58.487Z,23.43
2017-06-09T01:45:17.895Z,23.48
2017-06-09T01:45:37.268Z,23.52
2017-06-09T01:45:55.589Z,23.35
2017-06-09T01:46:14.916Z,23.38
2017-06-09T01:46:34.283Z,23.45
2017-06-09T01:46:53.125Z,23.45
2017-06-09T01:47:11.973Z,23.43
2017-06-09T01:47:31.331Z,23.42
2017-06-09T01:47:50.685Z,23.4
2017-06-09T01:48:10.062Z,23.42
2017-06-09T01:48:29.424Z,23.38
2017-06-09T01:48:48.817Z,23.31
2017-06-09T01:49:08.174Z,23.35
2017-06-09T01:49:27.543Z,23.38
2017-06-09T01:49:46.390Z,23.42
2017-06-09T01:50:05.767Z,23.4
2017-06-09T01:50:25.098Z,23.43
2017-06-09T01:50:43.931Z,23.43
2017-06-09T01:51:03.296Z,23.4
2017-06-09T01:51:22.641Z,23.42
2017-06-09T01:51:40.969Z,23.46
2017-06-09T01:52:00.385Z,23.42
2017-06-09T01:52:19.728Z,23.34
2017-06-09T01:52:39.078Z,23.26
2017-06-09T01:52:58.419Z,23.31
2017-06-09T01:53:17.848Z,23.31
2017-06-09T01:53:36.245Z,23.29
2017-06-09T01:53:55.606Z,23.29
2017-06-09T01:54:14.481Z,23.4
2017-06-09T01:54:33.304Z,23.34
2017-06-09T01:54:52.159Z,23.31
2017-06-09T01:55:10.986Z,23.31
2017-06-09T01:55:30.356Z,23.29
2017-06-09T01:55:49.272Z,23.31
2017-06-09T01:56:08.142Z,23.23
2017-06-09T01:56:27.002Z,23.26
2017-06-09T01:56:46.390Z,23.34
2017-06-09T01:57:05.768Z,23.33
2017-06-09T01:57:25.117Z,23.29
2017-06-09T01:57:43.441Z,23.29
2017-06-09T01:58:02.835Z,23.35
2017-06-09T01:58:21.668Z,23.35
2017-06-09T01:58:41.030Z,23.35
2017-06-09T01:59:00.396Z,23.37
2017-06-09T01:59:19.766Z,23.4
2017-06-09T01:59:38.093Z,23.34
2017-06-09T01:59:57.459Z,23.42
2017-06-09T02:00:15.813Z,23.45
2017-06-09T02:00:35.188Z,23.37
2017-06-09T02:00:54.061Z,23.45
2017-06-09T02:01:12.389Z,23.4
2017-06-09T02:01:31.736Z,23.5
2017-06-09T02:01:51.088Z,23.4
2017-06-09T02:02:10.440Z,23.42
2017-06-09T02:02:29.273Z,23.42
2017-06-09T02:02:48.634Z,23.45
2017-06-09T02:03:07.998Z,23.4
2017-06-09T02:03:41.041Z,23.45
2017-06-09T02:03:59.881Z,23.42
2017-06-09T02:04:18.705Z,23.4
2017-06-09T02:04:38.084Z,23.37
2017-06-09T02:04:56.939Z,23.34
2017-06-09T02:05:16.281Z,23.43
2017-06-09T02:05:34.591Z,23.4
2017-06-09T02:05:52.909Z,23.38
2017-06-09T02:06:11.744Z,23.33
2017-06-09T02:06:30.584Z,23.4
2017-06-09T02:06:49.934Z,23.4
2017-06-09T02:07:09.330Z,23.37
2017-06-09T02:07:28.675Z,23.43
2017-06-09T02:07:47.499Z,23.37
2017-06-09T02:08:06.330Z,23.42
2017-06-09T02:08:25.157Z,23.35
2017-06-09T02:08:44.546Z,23.45
2017-06-09T02:09:03.887Z,23.43
2017-06-09T02:09:23.244Z,23.4
2017-06-09T02:09:42.646Z,23.35
2017-06-09T02:10:02.395Z,23.38
2017-06-09T02:10:21.798Z,23.38
2017-06-09T02:10:41.675Z,23.35
2017-06-09T02:11:01.017Z,23.29
2017-06-09T02:11:20.425Z,23.34
2017-06-09T02:11:39.829Z,23.37
2017-06-09T02:11:59.237Z,23.37
2017-06-09T02:12:18.595Z,23.27
2017-06-09T02:12:37.961Z,23.31
2017-06-09T02:12:57.852Z,23.33
2017-06-09T02:13:17.197Z,23.35
2017-06-09T02:13:36.562Z,23.33
2017-06-09T02:13:55.506Z,23.42
2017-06-09T02:14:14.912Z,23.46
2017-06-09T02:14:33.735Z,23.45
2017-06-09T02:14:53.112Z,23.42
2017-06-09T02:15:12.484Z,23.42
2017-06-09T02:15:31.874Z,23.45
2017-06-09T02:15:50.769Z,23.4
2017-06-09T02:16:10.151Z,23.46
2017-06-09T02:16:29.532Z,23.43
2017-06-09T02:16:48.412Z,23.49
2017-06-09T02:17:07.854Z,23.5
2017-06-09T02:17:26.752Z,23.61
2017-06-09T02:17:46.142Z,23.52
2017-06-09T02:18:05.533Z,23.46
2017-06-09T02:18:24.921Z,23.55
2017-06-09T02:18:43.832Z,23.58
2017-06-09T02:19:03.189Z,23.56
2017-06-09T02:19:22.550Z,23.46
2017-06-09T02:19:41.952Z,23.43
2017-06-09T02:20:01.306Z,23.56
2017-06-09T02:20:20.699Z,23.63
2017-06-09T02:20:40.114Z,23.68
2017-06-09T02:20:59.498Z,23.67
2017-06-09T02:21:19.337Z,23.64
2017-06-09T02:21:38.761Z,23.7
2017-06-09T02:21:57.643Z,23.7
2017-06-09T02:22:16.021Z,23.72
2017-06-09T02:22:35.449Z,23.65
2017-06-09T02:22:54.837Z,23.61
2017-06-09T02:23:13.764Z,23.68
2017-06-09T02:23:33.181Z,23.72
2017-06-09T02:23:52.632Z,23.75
2017-06-09T02:24:11.505Z,23.64
2017-06-09T02:24:30.878Z,23.63
2017-06-09T02:24:50.264Z,23.61
2017-06-09T02:25:09.620Z,23.64
2017-06-09T02:25:29.012Z,23.61
2017-06-09T02:25:48.384Z,23.63
2017-06-09T02:26:07.783Z,23.74
2017-06-09T02:26:27.170Z,23.65
2017-06-09T02:26:46.562Z,23.63
2017-06-09T02:27:05.401Z,23.71
2017-06-09T02:27:24.769Z,23.61
2017-06-09T02:27:44.154Z,23.65
2017-06-09T02:28:03.521Z,23.64
2017-06-09T02:28:21.843Z,23.64
2017-06-09T02:28:41.248Z,23.74
2017-06-09T02:29:00.623Z,23.65
2017-06-09T02:29:20.018Z,23.61
2017-06-09T02:29:39.388Z,23.74
2017-06-09T02:29:58.768Z,23.7
2017-06-09T02:30:18.173Z,23.67
2017-06-09T02:30:37.583Z,23.7
2017-06-09T02:30:56.966Z,23.78
2017-06-09T02:31:16.334Z,23.75
2017-06-09T02:31:35.238Z,23.74
2017-06-09T02:31:54.098Z,23.75
2017-06-09T02:32:12.952Z,23.7
2017-06-09T02:32:32.344Z,23.72
2017-06-09T02:32:51.728Z,23.7
2017-06-09T02:33:11.098Z,23.74
2017-06-09T02:33:30.476Z,23.72
2017-06-09T02:33:49.862Z,23.75
2017-06-09T02:34:09.254Z,23.7
2017-06-09T02:34:27.073Z,23.74
2017-06-09T02:34:46.491Z,23.7
2017-06-09T02:35:05.347Z,23.72
2017-06-09T02:35:24.757Z,23.75
2017-06-09T02:35:44.121Z,23.67
2017-06-09T02:36:03.562Z,23.53
2017-06-09T02:36:22.939Z,23.63
2017-06-09T02:36:42.302Z,23.5
2017-06-09T02:37:01.139Z,23.5
2017-06-09T02:37:20.000Z,23.53
2017-06-09T02:37:39.379Z,23.49
2017-06-09T02:37:58.748Z,23.48
2017-06-09T02:38:18.138Z,23.46
2017-06-09T02:38:37.515Z,23.49
2017-06-09T02:38:56.375Z,23.49
2017-06-09T02:39:15.741Z,23.43
2017-06-09T02:39:35.103Z,23.45
2017-06-09T02:39:54.504Z,23.43
2017-06-09T02:40:13.376Z,23.37
2017-06-09T02:40:32.224Z,23.31
2017-06-09T02:40:53.192Z,23.31
2017-06-09T02:41:13.456Z,23.24
2017-06-09T02:41:32.834Z,23.22
2017-06-09T02:41:52.203Z,23.15
2017-06-09T02:42:11.566Z,23.18
2017-06-09T02:42:30.374Z,23.11
2017-06-09T02:42:49.766Z,23.23
2017-06-09T02:43:08.602Z,23.17
2017-06-09T02:43:27.472Z,23.17
2017-06-09T02:43:46.837Z,23.23
2017-06-09T02:44:05.694Z,23.17
2017-06-09T02:44:25.062Z,23.17
2017-06-09T02:44:44.488Z,23.17
2017-06-09T02:45:03.865Z,23.18
2017-06-09T02:45:22.726Z,23.24
2017-06-09T02:45:41.617Z,23.18
2017-06-09T02:46:00.497Z,23.15
2017-06-09T02:46:18.847Z,23.15
2017-06-09T02:46:38.304Z,23.15
2017-06-09T02:46:57.122Z,23.08
2017-06-09T02:47:16.483Z,23.14
2017-06-09T02:47:35.855Z,23.15
2017-06-09T02:47:55.210Z,23.18
2017-06-09T02:48:14.655Z,23.11
2017-06-09T02:48:34.038Z,23.11
2017-06-09T02:48:52.404Z,23.11
2017-06-09T02:49:11.824Z,23.09
2017-06-09T02:49:30.698Z,23.14
2017-06-09T02:49:50.059Z,23.07
2017-06-09T02:50:09.424Z,23.12
2017-06-09T02:50:28.833Z,23.07
2017-06-09T02:50:47.670Z,23.08
2017-06-09T02:51:07.236Z,23.11
2017-06-09T02:51:26.610Z,23.09
2017-06-09T02:51:45.989Z,23.07
2017-06-09T02:52:05.386Z,23.14
2017-06-09T02:52:23.731Z,23.12
2017-06-09T02:52:43.150Z,23.09
2017-06-09T02:53:02.533Z,23.15
2017-06-09T02:53:21.375Z,23.11
2017-06-09T02:53:40.748Z,23.05
2017-06-09T02:54:00.103Z,23.11
2017-06-09T02:54:19.487Z,22.99
2017-06-09T02:54:37.303Z,23
2017-06-09T02:54:56.683Z,23.05
2017-06-09T02:55:16.058Z,23.05
2017-06-09T02:55:34.384Z,23
2017-06-09T02:55:53.765Z,22.94
2017-06-09T02:56:13.150Z,22.93
2017-06-09T02:56:32.017Z,22.99
2017-06-09T02:56:50.907Z,22.97
2017-06-09T02:57:10.321Z,22.93
2017-06-09T02:57:29.708Z,22.89
2017-06-09T02:57:49.082Z,22.92
2017-06-09T02:58:08.492Z,22.9
2017-06-09T02:58:27.368Z,22.86
2017-06-09T02:58:46.236Z,22.74
2017-06-09T02:59:05.609Z,22.72
2017-06-09T02:59:24.454Z,22.89
2017-06-09T02:59:43.820Z,22.79
2017-06-09T03:00:02.682Z,22.86
2017-06-09T03:00:22.105Z,22.86
2017-06-09T03:00:40.956Z,22.78
2017-06-09T03:01:00.421Z,22.79
2017-06-09T03:01:19.804Z,22.87
2017-06-09T03:01:38.151Z,22.84
2017-06-09T03:01:57.542Z,22.84
2017-06-09T03:02:16.938Z,22.81
2017-06-09T03:02:36.441Z,22.81
2017-06-09T03:02:55.823Z,22.77
2017-06-09T03:03:15.192Z,22.78
2017-06-09T03:03:34.565Z,22.74
2017-06-09T03:03:53.444Z,22.71
2017-06-09T03:04:12.810Z,22.79
2017-06-09T03:04:32.204Z,22.71
2017-06-09T03:04:51.072Z,22.75
2017-06-09T03:05:10.453Z,22.74
2017-06-09T03:05:28.800Z,22.77
2017-06-09T03:05:47.668Z,22.63
2017-06-09T03:06:07.046Z,22.72
2017-06-09T03:06:26.416Z,22.72
2017-06-09T03:06:45.810Z,22.65
2017-06-09T03:07:05.237Z,22.63
2017-06-09T03:07:24.614Z,22.63
2017-06-09T03:07:43.995Z,22.57
2017-06-09T03:08:03.361Z,22.54
2017-06-09T03:08:22.237Z,22.56
2017-06-09T03:08:41.600Z,22.54
2017-06-09T03:09:00.990Z,22.57
2017-06-09T03:09:20.373Z,22.6
2017-06-09T03:09:39.796Z,22.56
2017-06-09T03:09:59.170Z,22.56
2017-06-09T03:10:17.503Z,22.53
2017-06-09T03:10:36.373Z,22.62
2017-06-09T03:10:55.738Z,22.63
2017-06-09T03:11:15.126Z,22.56
2017-06-09T03:11:33.445Z,22.56
2017-06-09T03:11:52.817Z,22.52
2017-06-09T03:12:11.683Z,22.53
2017-06-09T03:12:30.538Z,22.46
2017-06-09T03:12:49.910Z,22.39
2017-06-09T03:13:08.783Z,22.42
2017-06-09T03:13:28.163Z,22.44
2017-06-09T03:13:47.528Z,22.52
2017-06-09T03:14:06.393Z,22.6
2017-06-09T03:14:25.783Z,22.42
2017-06-09T03:14:44.150Z,22.59
2017-06-09T03:15:03.510Z,22.52
2017-06-09T03:15:22.872Z,22.52
2017-06-09T03:15:42.253Z,22.59
2017-06-09T03:16:01.086Z,22.53
2017-06-09T03:16:20.444Z,22.53
2017-06-09T03:16:39.309Z,22.53
2017-06-09T03:16:58.694Z,22.59
2017-06-09T03:17:17.021Z,22.59
2017-06-09T03:17:36.405Z,22.57
2017-06-09T03:17:55.807Z,22.53
2017-06-09T03:18:15.207Z,22.54
2017-06-09T03:18:34.604Z,22.53
2017-06-09T03:18:53.488Z,22.54
2017-06-09T03:19:12.879Z,22.65
2017-06-09T03:19:32.245Z,22.67
2017-06-09T03:19:51.101Z,22.54
2017-06-09T03:20:10.488Z,22.62
2017-06-09T03:20:29.870Z,22.67
2017-06-09T03:20:48.729Z,22.56
2017-06-09T03:21:08.109Z,22.59
2017-06-09T03:21:27.486Z,22.59
2017-06-09T03:21:46.331Z,22.59
2017-06-09T03:22:05.692Z,22.56
2017-06-09T03:22:24.570Z,22.67
2017-06-09T03:22:43.454Z,22.72
2017-06-09T03:23:02.853Z,22.78
2017-06-09T03:23:22.233Z,22.68
2017-06-09T03:23:41.614Z,22.71
2017-06-09T03:24:00.982Z,22.68
2017-06-09T03:24:20.384Z,22.69
2017-06-09T03:24:39.207Z,22.6
2017-06-09T03:24:58.539Z,22.69
2017-06-09T03:25:17.395Z,22.68
2017-06-09T03:25:36.747Z,22.69
2017-06-09T03:25:56.093Z,22.63
2017-06-09T03:26:15.452Z,22.63
2017-06-09T03:26:34.800Z,22.68
2017-06-09T03:26:54.140Z,22.56
2017-06-09T03:27:13.491Z,22.62
2017-06-09T03:27:32.851Z,22.62
2017-06-09T03:27:52.198Z,22.67
2017-06-09T03:28:11.541Z,22.63
2017-06-09T03:28:30.878Z,22.63
2017-06-09T03:28:50.205Z,22.67
2017-06-09T03:29:09.606Z,22.63
2017-06-09T03:29:28.980Z,22.71
2017-06-09T03:29:47.814Z,22.65
2017-06-09T03:30:07.158Z,22.72
2017-06-09T03:30:26.047Z,22.68
2017-06-09T03:30:45.387Z,22.74
2017-06-09T03:31:04.216Z,22.71
2017-06-09T03:31:23.577Z,22.69
2017-06-09T03:31:42.950Z,22.72
2017-06-09T03:32:02.312Z,22.75
2017-06-09T03:32:21.655Z,22.78
2017-06-09T03:32:41.001Z,22.77
2017-06-09T03:32:59.331Z,22.74
2017-06-09T03:33:18.718Z,22.78
2017-06-09T03:33:37.551Z,22.77
2017-06-09T03:33:56.378Z,22.75
2017-06-09T03:34:15.716Z,22.78
2017-06-09T03:34:35.080Z,22.78
2017-06-09T03:34:54.429Z,22.75
2017-06-09T03:35:13.259Z,22.75
2017-06-09T03:35:32.081Z,22.74
2017-06-09T03:35:51.446Z,22.78
2017-06-09T03:36:10.810Z,22.72
2017-06-09T03:36:30.175Z,22.77
2017-06-09T03:36:49.538Z,22.79
2017-06-09T03:37:08.384Z,22.77
2017-06-09T03:37:27.215Z,22.78
2017-06-09T03:37:46.542Z,22.72
2017-06-09T03:38:05.384Z,22.78
2017-06-09T03:38:24.733Z,22.81
2017-06-09T03:38:43.053Z,22.78
2017-06-09T03:39:02.394Z,22.75
2017-06-09T03:39:21.238Z,22.79
2017-06-09T03:39:40.587Z,22.81
2017-06-09T03:39:59.941Z,22.83
2017-06-09T03:40:18.780Z,22.86
2017-06-09T03:40:38.143Z,22.83
2017-06-09T03:40:57.479Z,22.81
2017-06-09T03:41:16.320Z,22.86
2017-06-09T03:41:35.152Z,22.87
2017-06-09T03:41:54.534Z,22.78
2017-06-09T03:42:13.363Z,22.84
2017-06-09T03:42:32.225Z,22.77
2017-06-09T03:42:51.585Z,22.81
2017-06-09T03:43:10.416Z,22.78
2017-06-09T03:43:29.774Z,22.77
2017-06-09T03:43:49.120Z,22.86
2017-06-09T03:44:07.980Z,22.86
2017-06-09T03:44:27.357Z,22.75
2017-06-09T03:44:46.728Z,22.74
2017-06-09T03:45:05.583Z,22.77
2017-06-09T03:45:24.960Z,22.78
2017-06-09T03:45:44.325Z,22.83
2017-06-09T03:46:03.176Z,22.84
2017-06-09T03:46:22.524Z,22.77
2017-06-09T03:46:41.880Z,22.83
2017-06-09T03:47:00.730Z,22.87
2017-06-09T03:47:19.562Z,22.93
2017-06-09T03:47:38.931Z,22.75
2017-06-09T03:47:57.773Z,22.75
2017-06-09T03:48:17.118Z,22.84
2017-06-09T03:48:35.975Z,22.71
2017-06-09T03:48:55.345Z,22.75
2017-06-09T03:49:14.207Z,22.78
2017-06-09T03:49:33.547Z,22.74
2017-06-09T03:49:52.920Z,22.84
2017-06-09T03:50:12.249Z,22.78
2017-06-09T03:50:31.084Z,22.72
2017-06-09T03:50:50.419Z,22.78
2017-06-09T03:51:09.833Z,22.81
2017-06-09T03:51:28.686Z,22.81
2017-06-09T03:51:48.040Z,22.79
2017-06-09T03:52:07.394Z,22.84
2017-06-09T03:52:25.172Z,22.93
2017-06-09T03:52:44.558Z,22.87
2017-06-09T03:53:03.373Z,22.86
2017-06-09T03:53:22.721Z,22.81
2017-06-09T03:53:41.572Z,22.84
2017-06-09T03:53:59.901Z,22.87
2017-06-09T03:54:19.270Z,22.9
2017-06-09T03:54:38.638Z,22.83
2017-06-09T03:54:57.980Z,22.89
2017-06-09T03:55:17.331Z,22.87
2017-06-09T03:55:36.687Z,22.84
2017-06-09T03:55:56.042Z,22.87
2017-06-09T03:56:15.390Z,22.93
2017-06-09T03:56:33.738Z,22.9
2017-06-09T03:56:53.073Z,22.83
2017-06-09T03:57:12.425Z,22.84
2017-06-09T03:57:31.789Z,22.81
2017-06-09T03:57:50.641Z,22.89
2017-06-09T03:58:10.014Z,22.87
2017-06-09T03:58:29.357Z,22.86
2017-06-09T03:58:48.170Z,22.87
2017-06-09T03:59:07.010Z,22.83
2017-06-09T03:59:26.371Z,22.78
2017-06-09T03:59:45.698Z,22.79
2017-06-09T04:00:05.068Z,22.81
2017-06-09T04:00:23.891Z,22.75
2017-06-09T04:00:42.852Z,22.77
2017-06-09T04:01:02.216Z,22.75
2017-06-09T04:01:21.038Z,22.77
2017-06-09T04:01:40.402Z,22.78
2017-06-09T04:01:59.769Z,22.69
2017-06-09T04:02:19.132Z,22.68
2017-06-09T04:02:38.488Z,22.69
2017-06-09T04:02:57.871Z,22.74
2017-06-09T04:03:17.192Z,22.69
2017-06-09T04:03:36.551Z,22.65
2017-06-09T04:03:54.914Z,22.75
2017-06-09T04:04:14.272Z,22.72
2017-06-09T04:04:33.652Z,22.78
2017-06-09T04:04:52.488Z,22.77
2017-06-09T04:05:11.846Z,22.75
2017-06-09T04:05:31.225Z,22.72
2017-06-09T04:05:50.048Z,22.71
2017-06-09T04:06:09.420Z,22.74
2017-06-09T04:06:28.763Z,22.72
2017-06-09T04:06:48.145Z,22.75
2017-06-09T04:07:07.491Z,22.77
2017-06-09T04:07:26.853Z,22.75
2017-06-09T04:07:45.710Z,22.74
2017-06-09T04:08:05.066Z,22.74
2017-06-09T04:08:24.420Z,22.68
2017-06-09T04:08:44.063Z,22.77